Time;durP1;ratioP1;P1;durP2;ratioP2;P2;SDS_P1;SDS_P2;PMS_P1;PMS_P2;Temp;Humidity;BMP_temperature;BMP_pressure;BME280_temperature;BME280_humidity;BME280_pressure;Samples;Min_cycle;Max_cycle;Signal;HPM_P1;HPM_P2
2020/12/07 00:05:34;;;;;;;79.50;56.67;;;;;;;;;;4388305;28;20111;-60
2020/12/07 00:08:01;;;;;;;74.93;52.97;;;;;;;;;;4259641;33;20195;-59
2020/12/07 00:10:27;;;;;;;70.15;53.38;;;;;;;;;;4211425;33;20109;-59
2020/12/07 00:12:54;;;;;;;70.50;51.97;;;;;;;;;;4237113;33;20196;-59
2020/12/07 00:15:20;;;;;;;69.12;49.78;;;;;;;;;;4234449;33;20109;-60
2020/12/07 00:17:46;;;;;;;66.45;50.92;;;;;;;;;;4234201;33;20517;-59
2020/12/07 00:20:13;;;;;;;58.08;47.58;;;;;;;;;;4247307;33;20116;-60
2020/12/07 00:22:39;;;;;;;60.20;44.58;;;;;;;;;;4223367;33;20133;-60
2020/12/07 00:25:05;;;;;;;54.97;42.15;;;;;;;;;;4232816;33;20136;-59
2020/12/07 00:27:34;;;;;;;47.83;40.17;;;;;;;;;;4220266;33;20120;-60
2020/12/07 00:30:01;;;;;;;54.60;38.85;;;;;;;;;;4231512;33;20131;-59
2020/12/07 00:32:28;;;;;;;46.15;37.05;;;;;;;;;;4233125;33;20517;-59
2020/12/07 00:34:55;;;;;;;44.38;35.28;;;;;;;;;;4232902;33;20139;-59
2020/12/07 00:37:21;;;;;;;45.20;36.05;;;;;;;;;;4233303;33;20116;-61
2020/12/07 00:39:47;;;;;;;39.60;31.98;;;;;;;;;;4231145;33;20116;-59
2020/12/07 00:42:13;;;;;;;43.28;34.55;;;;;;;;;;4247229;33;20222;-60
2020/12/07 00:44:40;;;;;;;42.65;33.80;;;;;;;;;;4246395;33;20149;-59
2020/12/07 00:47:06;;;;;;;37.15;31.60;;;;;;;;;;4246748;33;20108;-59
2020/12/07 00:49:33;;;;;;;38.05;30.77;;;;;;;;;;4247029;33;20210;-59
2020/12/07 00:51:59;;;;;;;43.55;32.60;;;;;;;;;;4246859;33;20093;-60
2020/12/07 00:54:25;;;;;;;42.75;31.45;;;;;;;;;;4246746;33;20250;-59
2020/12/07 00:56:52;;;;;;;45.47;34.22;;;;;;;;;;4234129;33;20444;-59
2020/12/07 00:59:19;;;;;;;41.28;31.73;;;;;;;;;;4246791;33;20124;-59
2020/12/07 01:01:45;;;;;;;40.35;31.60;;;;;;;;;;4234036;33;20127;-60
2020/12/07 01:04:11;;;;;;;39.40;32.42;;;;;;;;;;4221483;33;20117;-59
2020/12/07 01:06:39;;;;;;;37.08;29.87;;;;;;;;;;4246807;33;20096;-60
2020/12/07 01:09:05;;;;;;;38.10;30.40;;;;;;;;;;4246869;33;20456;-61
2020/12/07 01:11:31;;;;;;;38.50;30.80;;;;;;;;;;4234119;33;20445;-60
2020/12/07 01:13:57;;;;;;;38.28;30.95;;;;;;;;;;4246697;33;20804;-59
2020/12/07 01:16:23;;;;;;;43.15;32.33;;;;;;;;;;4245938;33;20109;-59
2020/12/07 01:18:49;;;;;;;37.15;31.77;;;;;;;;;;4246543;33;20131;-59
2020/12/07 01:21:16;;;;;;;39.50;31.65;;;;;;;;;;4247075;33;20188;-59
2020/12/07 01:23:44;;;;;;;39.10;30.67;;;;;;;;;;4233549;33;20113;-59
2020/12/07 01:26:14;;;;;;;41.75;31.60;;;;;;;;;;4233705;33;20203;-59
2020/12/07 01:28:41;;;;;;;38.03;30.37;;;;;;;;;;4246746;33;20109;-59
2020/12/07 01:31:07;;;;;;;40.08;30.20;;;;;;;;;;4246790;33;20116;-60
2020/12/07 01:33:33;;;;;;;34.78;29.00;;;;;;;;;;4246337;33;20104;-59
2020/12/07 01:35:59;;;;;;;36.65;27.70;;;;;;;;;;4233555;33;20464;-59
2020/12/07 01:38:25;;;;;;;33.60;26.42;;;;;;;;;;4233289;33;20119;-59
2020/12/07 01:40:51;;;;;;;29.60;24.40;;;;;;;;;;4233078;33;20115;-59
2020/12/07 01:43:18;;;;;;;30.60;23.65;;;;;;;;;;4230830;33;20209;-59
2020/12/07 01:45:45;;;;;;;29.98;23.10;;;;;;;;;;4232161;33;20579;-59
2020/12/07 01:48:11;;;;;;;31.92;22.77;;;;;;;;;;4232438;33;20096;-59
2020/12/07 01:50:38;;;;;;;30.08;22.27;;;;;;;;;;4232358;33;20426;-58
2020/12/07 01:53:04;;;;;;;28.20;22.20;;;;;;;;;;4207731;33;20123;-59
2020/12/07 01:55:30;;;;;;;27.92;21.77;;;;;;;;;;4219196;33;20116;-59
2020/12/07 01:57:56;;;;;;;32.08;21.98;;;;;;;;;;4207963;33;20147;-60
2020/12/07 02:00:23;;;;;;;29.23;21.02;;;;;;;;;;4232070;33;20105;-59
2020/12/07 02:02:49;;;;;;;28.45;20.48;;;;;;;;;;4219469;33;20120;-59
2020/12/07 02:05:15;;;;;;;31.85;19.77;;;;;;;;;;4209956;33;20140;-59
2020/12/07 02:07:41;;;;;;;28.98;20.42;;;;;;;;;;4233141;33;20200;-59
2020/12/07 02:10:07;;;;;;;27.90;20.33;;;;;;;;;;4233082;33;20136;-58
2020/12/07 02:12:33;;;;;;;29.02;20.25;;;;;;;;;;4246065;33;20135;-59
2020/12/07 02:15:00;;;;;;;31.02;19.73;;;;;;;;;;4232886;33;20207;-59
2020/12/07 02:17:26;;;;;;;32.78;20.10;;;;;;;;;;4232895;33;20571;-58
2020/12/07 02:19:52;;;;;;;27.90;18.25;;;;;;;;;;4245807;33;20136;-58
2020/12/07 02:22:18;;;;;;;31.67;23.17;;;;;;;;;;4233089;33;20149;-59
2020/12/07 02:24:44;;;;;;;31.65;22.58;;;;;;;;;;4221372;33;20555;-58
2020/12/07 02:27:10;;;;;;;25.55;19.52;;;;;;;;;;4247617;33;20214;-58
2020/12/07 02:29:36;;;;;;;28.17;19.87;;;;;;;;;;4248095;33;20445;-57
2020/12/07 02:32:13;;;;;;;31.35;20.25;;;;;;;;;;4248461;33;20127;-57
2020/12/07 02:34:40;;;;;;;31.58;19.55;;;;;;;;;;4246804;33;20131;-58
2020/12/07 02:37:06;;;;;;;30.55;20.05;;;;;;;;;;4248624;33;20097;-58
2020/12/07 02:39:32;;;;;;;33.35;19.42;;;;;;;;;;4248160;33;20116;-58
2020/12/07 02:41:58;;;;;;;28.77;17.98;;;;;;;;;;4223301;33;20108;-58
2020/12/07 02:44:24;;;;;;;27.40;16.92;;;;;;;;;;4235042;33;20117;-59
2020/12/07 02:46:53;;;;;;;27.83;16.62;;;;;;;;;;4247978;33;20210;-57
2020/12/07 02:49:19;;;;;;;27.83;16.30;;;;;;;;;;4223483;33;20109;-65
2020/12/07 02:51:45;;;;;;;24.33;9.68;;;;;;;;;;4246521;33;20089;-57
2020/12/07 02:54:12;;;;;;;28.12;15.93;;;;;;;;;;4247808;33;20128;-57
2020/12/07 02:56:38;;;;;;;24.75;15.70;;;;;;;;;;4248217;33;20162;-59
2020/12/07 02:59:04;;;;;;;29.52;15.38;;;;;;;;;;4247829;33;20557;-60
2020/12/07 03:01:29;;;;;;;23.73;15.40;;;;;;;;;;4234810;33;20212;-59
2020/12/07 03:03:55;;;;;;;27.13;15.50;;;;;;;;;;4247302;33;20187;-58
2020/12/07 03:06:21;;;;;;;27.87;16.02;;;;;;;;;;4247683;33;20184;-62
2020/12/07 03:08:47;;;;;;;26.58;16.00;;;;;;;;;;4234669;33;20116;-63
2020/12/07 03:11:14;;;;;;;33.25;16.20;;;;;;;;;;4246589;33;20469;-60
2020/12/07 03:13:40;;;;;;;32.90;17.73;;;;;;;;;;4234014;33;20100;-60
2020/12/07 03:16:06;;;;;;;32.75;16.62;;;;;;;;;;4247040;33;20219;-59
2020/12/07 03:18:32;;;;;;;33.97;20.10;;;;;;;;;;4233035;33;20113;-58
2020/12/07 03:20:58;;;;;;;34.58;18.67;;;;;;;;;;4247864;33;20117;-59
2020/12/07 03:23:24;;;;;;;37.78;19.45;;;;;;;;;;4234526;33;20179;-60
2020/12/07 03:25:50;;;;;;;37.35;19.65;;;;;;;;;;4247887;33;20131;-60
2020/12/07 03:28:16;;;;;;;43.15;18.12;;;;;;;;;;4233715;33;20130;-61
2020/12/07 03:30:42;;;;;;;33.15;18.75;;;;;;;;;;4247190;33;20511;-60
2020/12/07 03:33:08;;;;;;;34.88;18.83;;;;;;;;;;4247835;33;20109;-60
2020/12/07 03:35:34;;;;;;;45.55;20.83;;;;;;;;;;4247445;33;20119;-60
2020/12/07 03:38:00;;;;;;;44.88;23.08;;;;;;;;;;4247234;33;20116;-59
2020/12/07 03:40:26;;;;;;;44.30;23.25;;;;;;;;;;4234493;33;20207;-59
2020/12/07 03:42:52;;;;;;;40.90;20.85;;;;;;;;;;4247659;33;20124;-60
2020/12/07 03:45:18;;;;;;;60.60;22.42;;;;;;;;;;4247466;33;20183;-60
2020/12/07 03:47:44;;;;;;;50.20;23.75;;;;;;;;;;4234220;33;20123;-61
2020/12/07 03:50:10;;;;;;;45.67;22.42;;;;;;;;;;4245765;33;20109;-61
2020/12/07 03:52:36;;;;;;;44.58;23.52;;;;;;;;;;4247297;33;20133;-62
2020/12/07 03:55:02;;;;;;;49.15;25.20;;;;;;;;;;4247378;33;20528;-57
2020/12/07 03:57:28;;;;;;;48.10;24.42;;;;;;;;;;4234521;33;20105;-57
2020/12/07 03:59:54;;;;;;;55.05;25.95;;;;;;;;;;4247233;33;20638;-59
2020/12/07 04:02:20;;;;;;;54.20;24.30;;;;;;;;;;4247190;33;20104;-60
2020/12/07 04:04:51;;;;;;;44.10;21.67;;;;;;;;;;4245719;33;20120;-59
2020/12/07 04:07:17;;;;;;;47.08;21.25;;;;;;;;;;4247185;33;20120;-58
2020/12/07 04:09:43;;;;;;;41.15;18.55;;;;;;;;;;4247184;33;20522;-58
2020/12/07 04:12:09;;;;;;;41.40;18.85;;;;;;;;;;4247240;33;20104;-58
2020/12/07 04:14:35;;;;;;;37.67;19.30;;;;;;;;;;4233907;33;20483;-58
2020/12/07 04:17:01;;;;;;;43.80;18.20;;;;;;;;;;4247214;33;20139;-59
2020/12/07 04:19:27;;;;;;;40.45;16.77;;;;;;;;;;4246706;33;20109;-58
2020/12/07 04:21:53;;;;;;;38.90;17.58;;;;;;;;;;4233996;33;20124;-59
2020/12/07 04:24:19;;;;;;;35.72;15.23;;;;;;;;;;4222249;33;20194;-59
2020/12/07 04:26:46;;;;;;;32.03;16.08;;;;;;;;;;4246919;33;20109;-59
2020/12/07 04:29:12;;;;;;;35.08;14.73;;;;;;;;;;4233615;33;20219;-60
2020/12/07 04:31:38;;;;;;;34.45;15.15;;;;;;;;;;4233950;33;20120;-59
2020/12/07 04:34:04;;;;;;;38.70;15.25;;;;;;;;;;4246746;33;20572;-60
2020/12/07 04:36:30;;;;;;;39.22;16.10;;;;;;;;;;4247055;33;20536;-59
2020/12/07 04:38:56;;;;;;;35.50;15.93;;;;;;;;;;4246708;33;20108;-59
2020/12/07 04:41:22;;;;;;;38.10;16.62;;;;;;;;;;4233717;33;20113;-60
2020/12/07 04:43:49;;;;;;;33.13;16.35;;;;;;;;;;4233653;33;20119;-59
2020/12/07 04:46:15;;;;;;;35.05;16.00;;;;;;;;;;4233501;33;20117;-61
2020/12/07 04:48:41;;;;;;;32.33;15.65;;;;;;;;;;4246540;33;20124;-60
2020/12/07 04:51:09;;;;;;;34.00;16.05;;;;;;;;;;4246097;33;20105;-60
2020/12/07 04:53:35;;;;;;;40.60;16.62;;;;;;;;;;4233426;33;20136;-58
2020/12/07 04:56:01;;;;;;;51.28;17.33;;;;;;;;;;4233536;33;20121;-58
2020/12/07 04:58:27;;;;;;;39.10;18.80;;;;;;;;;;4233544;33;20136;-58
2020/12/07 05:00:54;;;;;;;50.47;20.88;;;;;;;;;;4233614;33;20465;-60
2020/12/07 05:03:20;;;;;;;50.33;21.90;;;;;;;;;;4233267;33;20243;-59
2020/12/07 05:05:49;;;;;;;64.32;23.25;;;;;;;;;;4246055;33;20116;-58
2020/12/07 05:08:15;;;;;;;52.33;21.98;;;;;;;;;;4233721;33;20128;-59
2020/12/07 05:10:43;;;;;;;65.87;28.55;;;;;;;;;;4221548;33;20662;-59
2020/12/07 05:15:42;;;;;;;65.57;28.65;;;;;;;;;;4244788;33;20156;-59
2020/12/07 05:18:08;;;;;;;71.43;29.05;;;;;;;;;;4246613;33;20121;-58
2020/12/07 05:20:34;;;;;;;73.70;27.13;;;;;;;;;;4233224;33;20529;-58
2020/12/07 05:23:00;;;;;;;52.20;23.90;;;;;;;;;;4233405;33;20092;-58
2020/12/07 05:25:27;;;;;;;59.53;22.80;;;;;;;;;;4246220;33;20115;-59
2020/12/07 05:27:54;;;;;;;23.05;12.43;;;;;;;;;;4233575;33;20712;-59
2020/12/07 05:32:47;;;;;;;34.38;16.60;;;;;;;;;;4246352;33;20089;-59
2020/12/07 05:35:13;;;;;;;64.87;20.77;;;;;;;;;;4221649;33;20094;-59
2020/12/07 05:37:40;;;;;;;65.60;22.35;;;;;;;;;;4246621;33;20120;-59
2020/12/07 05:40:10;;;;;;;64.85;19.62;;;;;;;;;;4221575;33;20133;-59
2020/12/07 05:42:36;;;;;;;61.10;22.27;;;;;;;;;;4222084;33;20552;-60
2020/12/07 05:45:03;;;;;;;31.37;14.48;;;;;;;;;;4246093;33;20105;-60
2020/12/07 05:47:31;;;;;;;23.48;12.80;;;;;;;;;;4247320;33;20151;-60
2020/12/07 05:49:58;;;;;;;17.67;10.27;;;;;;;;;;4233065;33;20149;-59
2020/12/07 05:52:46;;;;;;;66.37;22.73;;;;;;;;;;4246086;33;20108;-59
2020/12/07 05:55:19;;;;;;;56.65;22.60;;;;;;;;;;4233019;33;20108;-59
2020/12/07 05:57:47;;;;;;;45.55;22.92;;;;;;;;;;4232986;33;20215;-59
2020/12/07 06:00:20;;;;;;;63.58;26.58;;;;;;;;;;4221415;33;20139;-59
2020/12/07 06:02:50;;;;;;;62.35;27.87;;;;;;;;;;4223491;33;20115;-59
2020/12/07 06:05:16;;;;;;;72.35;27.05;;;;;;;;;;4247851;33;20187;-59
2020/12/07 06:07:44;;;;;;;73.53;27.80;;;;;;;;;;4235006;33;20169;-60
2020/12/07 06:10:10;;;;;;;32.22;17.67;;;;;;;;;;4223356;33;20224;-59
2020/12/07 06:12:38;;;;;;;19.80;12.88;;;;;;;;;;4223423;33;20112;-60
2020/12/07 06:15:04;;;;;;;28.70;15.65;;;;;;;;;;4223214;33;20520;-60
2020/12/07 06:17:30;;;;;;;26.02;14.82;;;;;;;;;;4248169;33;20508;-59
2020/12/07 06:19:59;;;;;;;22.27;14.25;;;;;;;;;;4235150;33;20128;-59
2020/12/07 06:22:25;;;;;;;51.58;29.77;;;;;;;;;;4234988;33;20113;-59
2020/12/07 06:24:52;;;;;;;19.58;12.85;;;;;;;;;;4223494;33;20478;-59
2020/12/07 06:27:18;;;;;;;17.52;11.93;;;;;;;;;;4234929;33;20179;-59
2020/12/07 06:30:00;;;;;;;16.52;11.23;;;;;;;;;;4247841;33;20124;-60
2020/12/07 06:33:06;;;;;;;18.27;11.43;;;;;;;;;;4248246;33;20112;-59
2020/12/07 06:35:32;;;;;;;17.62;11.95;;;;;;;;;;4203797;34;20478;-59
2020/12/07 06:38:01;;;;;;;22.25;13.00;;;;;;;;;;4240395;33;20137;-59
2020/12/07 06:40:29;;;;;;;17.12;11.80;;;;;;;;;;4247848;33;20124;-59
2020/12/07 06:42:58;;;;;;;25.95;13.02;;;;;;;;;;4234915;33;20100;-59
2020/12/07 06:45:33;;;;;;;19.83;13.00;;;;;;;;;;4234432;33;20124;-60
2020/12/07 06:48:21;;;;;;;28.65;14.13;;;;;;;;;;4248032;33;20227;-60
2020/12/07 06:50:48;;;;;;;19.87;12.93;;;;;;;;;;4235021;33;20100;-59
2020/12/07 06:53:40;;;;;;;16.95;12.65;;;;;;;;;;4223005;33;20552;-60
2020/12/07 06:56:08;;;;;;;21.17;11.43;;;;;;;;;;4247918;33;20123;-58
2020/12/07 06:58:39;;;;;;;21.55;13.73;;;;;;;;;;4234753;33;20105;-59
2020/12/07 07:01:12;;;;;;;22.05;12.85;;;;;;;;;;4247616;33;20227;-58
2020/12/07 07:03:52;;;;;;;21.67;12.93;;;;;;;;;;4247673;33;20532;-58
2020/12/07 07:06:19;;;;;;;21.17;13.40;;;;;;;;;;4247703;33;20552;-59
2020/12/07 07:08:46;;;;;;;22.48;14.45;;;;;;;;;;4247601;33;20121;-58
2020/12/07 07:11:12;;;;;;;18.80;13.88;;;;;;;;;;4234583;33;20135;-58
2020/12/07 07:13:38;;;;;;;17.92;12.68;;;;;;;;;;4246941;33;20192;-59
2020/12/07 07:16:05;;;;;;;16.20;11.93;;;;;;;;;;4234513;33;20643;-58
2020/12/07 07:18:31;;;;;;;15.95;12.57;;;;;;;;;;4247546;33;20096;-58
2020/12/07 07:21:01;;;;;;;16.02;13.20;;;;;;;;;;4234657;33;20580;-58
2020/12/07 07:23:28;;;;;;;15.32;12.13;;;;;;;;;;4234723;33;20184;-58
2020/12/07 07:26:08;;;;;;;16.85;12.40;;;;;;;;;;4247689;33;21242;-58
2020/12/07 07:28:35;;;;;;;12.80;11.27;;;;;;;;;;4247440;33;20104;-60
2020/12/07 07:31:04;;;;;;;17.60;12.27;;;;;;;;;;4247433;33;20120;-58
2020/12/07 07:33:34;;;;;;;17.37;12.55;;;;;;;;;;4234391;33;20305;-58
2020/12/07 07:36:00;;;;;;;12.80;10.25;;;;;;;;;;4247523;33;20097;-58
2020/12/07 07:38:34;;;;;;;17.70;11.50;;;;;;;;;;4246252;33;20167;-57
2020/12/07 07:41:00;;;;;;;18.67;12.10;;;;;;;;;;4234242;33;20127;-57
2020/12/07 07:43:27;;;;;;;20.67;13.50;;;;;;;;;;4247531;33;20509;-58
2020/12/07 07:46:01;;;;;;;19.92;13.35;;;;;;;;;;4234429;33;20639;-59
2020/12/07 07:48:45;;;;;;;19.80;12.63;;;;;;;;;;4235284;33;20196;-57
2020/12/07 07:54:27;;;;;;;19.17;12.37;;;;;;;;;;4224278;33;20131;-59
2020/12/07 08:15:54;;;;;;;20.62;13.50;;;;;;;;;;4247414;33;20151;-59
2020/12/07 08:18:33;;;;;;;17.62;13.88;;;;;;;;;;4247320;33;20115;-59
2020/12/07 08:21:01;;;;;;;21.48;13.27;;;;;;;;;;4233987;33;20120;-58
2020/12/07 08:23:31;;;;;;;20.88;14.65;;;;;;;;;;4247180;33;20115;-59
2020/12/07 08:25:58;;;;;;;24.98;14.80;;;;;;;;;;4233846;33;20509;-59
2020/12/07 08:28:33;;;;;;;19.90;14.05;;;;;;;;;;4233898;33;20512;-57
2020/12/07 08:31:09;;;;;;;25.02;15.30;;;;;;;;;;4245185;33;20099;-59
2020/12/07 08:33:37;;;;;;;20.25;15.07;;;;;;;;;;4246670;33;20200;-59
2020/12/07 08:36:04;;;;;;;29.05;17.23;;;;;;;;;;4233642;33;20219;-58
2020/12/07 08:38:34;;;;;;;26.45;16.05;;;;;;;;;;4247156;33;20558;-61
2020/12/07 08:41:10;;;;;;;21.27;15.48;;;;;;;;;;4247256;33;20189;-60
2020/12/07 08:43:40;;;;;;;27.20;15.20;;;;;;;;;;4246851;33;20100;-58
2020/12/07 08:46:07;;;;;;;20.23;13.75;;;;;;;;;;4234311;33;20101;-59
2020/12/07 08:48:34;;;;;;;24.27;14.48;;;;;;;;;;4246714;33;20097;-60
2020/12/07 08:51:00;;;;;;;17.83;13.98;;;;;;;;;;4246984;33;20107;-59
2020/12/07 08:53:26;;;;;;;24.05;14.68;;;;;;;;;;4233911;33;20145;-59
2020/12/07 08:55:52;;;;;;;20.98;15.50;;;;;;;;;;4245179;33;20493;-59
2020/12/07 08:58:19;;;;;;;24.00;14.60;;;;;;;;;;4233870;33;20143;-58
2020/12/07 09:00:46;;;;;;;23.08;14.80;;;;;;;;;;4246437;33;20097;-60
2020/12/07 09:03:13;;;;;;;20.65;15.13;;;;;;;;;;4246657;33;20521;-60
2020/12/07 09:05:39;;;;;;;24.02;15.38;;;;;;;;;;4246115;33;20116;-59
2020/12/07 09:08:06;;;;;;;27.27;14.73;;;;;;;;;;4246627;33;20117;-59
2020/12/07 09:10:33;;;;;;;23.25;14.50;;;;;;;;;;4232582;33;20124;-57
2020/12/07 09:12:59;;;;;;;22.70;14.55;;;;;;;;;;4245033;33;20124;-59
2020/12/07 09:15:26;;;;;;;26.73;14.87;;;;;;;;;;4246370;33;20123;-57
2020/12/07 09:17:52;;;;;;;21.17;14.93;;;;;;;;;;4246713;33;20354;-58
2020/12/07 09:20:18;;;;;;;20.37;15.10;;;;;;;;;;4233154;33;20112;-54
2020/12/07 09:22:44;;;;;;;25.83;17.12;;;;;;;;;;4245181;33;20501;-60
2020/12/07 09:25:10;;;;;;;22.65;15.75;;;;;;;;;;4244971;33;20116;-59
2020/12/07 09:27:36;;;;;;;19.58;14.43;;;;;;;;;;4233178;33;20113;-61
2020/12/07 09:30:04;;;;;;;18.70;14.60;;;;;;;;;;4246457;33;20132;-61
2020/12/07 09:32:30;;;;;;;28.45;16.92;;;;;;;;;;4233389;33;20226;-61
2020/12/07 09:34:56;;;;;;;27.15;16.77;;;;;;;;;;4246390;33;20116;-60
2020/12/07 09:37:22;;;;;;;20.83;17.05;;;;;;;;;;4245925;33;20109;-60
2020/12/07 09:39:48;;;;;;;20.80;16.77;;;;;;;;;;4232802;33;20120;-60
2020/12/07 09:42:15;;;;;;;23.80;16.70;;;;;;;;;;4221686;33;20119;-59
2020/12/07 09:44:41;;;;;;;22.67;16.17;;;;;;;;;;4246253;33;20134;-61
2020/12/07 09:47:07;;;;;;;29.70;16.87;;;;;;;;;;4233400;33;20116;-60
2020/12/07 09:49:33;;;;;;;24.45;16.00;;;;;;;;;;4221471;33;20472;-62
2020/12/07 09:51:59;;;;;;;21.50;14.38;;;;;;;;;;4246361;33;20545;-60
2020/12/07 09:54:26;;;;;;;30.10;16.70;;;;;;;;;;4246220;33;20207;-59
2020/12/07 09:56:51;;;;;;;30.60;16.65;;;;;;;;;;4246074;33;20140;-62
2020/12/07 09:59:21;;;;;;;25.40;15.65;;;;;;;;;;4245930;33;20710;-60
2020/12/07 10:01:47;;;;;;;19.67;15.68;;;;;;;;;;4246256;33;20197;-60
2020/12/07 10:04:13;;;;;;;20.30;15.30;;;;;;;;;;4221334;33;20109;-57
2020/12/07 10:06:39;;;;;;;20.17;14.85;;;;;;;;;;4233037;33;20438;-58
2020/12/07 10:09:05;;;;;;;22.20;15.30;;;;;;;;;;4245980;33;20693;-58
2020/12/07 10:11:32;;;;;;;27.10;14.87;;;;;;;;;;4233167;33;20101;-59
2020/12/07 10:13:58;;;;;;;23.02;14.68;;;;;;;;;;4233073;33;20120;-59
2020/12/07 10:16:24;;;;;;;23.60;15.38;;;;;;;;;;4245857;33;20500;-59
2020/12/07 10:18:53;;;;;;;25.48;15.05;;;;;;;;;;4233675;33;20092;-58
2020/12/07 10:21:24;;;;;;;26.48;14.40;;;;;;;;;;4246136;33;20143;-59
2020/12/07 10:23:50;;;;;;;22.10;13.85;;;;;;;;;;4246058;33;20560;-60
2020/12/07 10:26:16;;;;;;;22.87;14.90;;;;;;;;;;4232835;33;20196;-60
2020/12/07 10:28:42;;;;;;;16.20;10.95;;;;;;;;;;4245829;33;20236;-59
2020/12/07 10:31:08;;;;;;;17.70;12.05;;;;;;;;;;4229539;33;20132;-59
2020/12/07 10:33:34;;;;;;;15.23;11.25;;;;;;;;;;4232137;33;20112;-59
2020/12/07 10:36:00;;;;;;;15.15;11.43;;;;;;;;;;4245414;33;20123;-60
2020/12/07 10:38:26;;;;;;;20.17;12.73;;;;;;;;;;4245739;33;20540;-60
2020/12/07 10:40:52;;;;;;;19.95;12.93;;;;;;;;;;4245192;33;20207;-60
2020/12/07 10:43:18;;;;;;;20.02;13.35;;;;;;;;;;4245610;33;20216;-59
2020/12/07 10:45:44;;;;;;;20.05;13.80;;;;;;;;;;4245348;33;20527;-58
2020/12/07 10:48:10;;;;;;;18.40;13.38;;;;;;;;;;4222674;33;20117;-58
2020/12/07 10:50:37;;;;;;;21.10;12.90;;;;;;;;;;4247823;33;20113;-59
2020/12/07 10:53:03;;;;;;;20.08;13.52;;;;;;;;;;4247935;33;20132;-59
2020/12/07 10:55:30;;;;;;;23.25;13.50;;;;;;;;;;4235006;33;20569;-58
2020/12/07 10:57:57;;;;;;;22.33;14.60;;;;;;;;;;4248141;33;20136;-58
2020/12/07 11:00:23;;;;;;;22.95;15.10;;;;;;;;;;4234639;33;20105;-58
2020/12/07 11:02:49;;;;;;;23.12;15.50;;;;;;;;;;4234794;33;20203;-59
2020/12/07 11:05:15;;;;;;;22.98;16.33;;;;;;;;;;4234450;33;20105;-59
2020/12/07 11:07:42;;;;;;;25.48;17.05;;;;;;;;;;4247787;33;20132;-60
2020/12/07 11:10:08;;;;;;;23.83;16.83;;;;;;;;;;4247569;33;20105;-58
2020/12/07 11:12:34;;;;;;;23.58;16.50;;;;;;;;;;4233555;33;20100;-59
2020/12/07 11:15:00;;;;;;;22.62;16.50;;;;;;;;;;4247596;33;20125;-59
2020/12/07 11:17:26;;;;;;;21.70;17.27;;;;;;;;;;4247973;33;20108;-59
2020/12/07 11:19:52;;;;;;;24.20;16.37;;;;;;;;;;4247666;33;20212;-58
2020/12/07 11:22:18;;;;;;;31.87;15.32;;;;;;;;;;4234751;33;20143;-59
2020/12/07 11:24:44;;;;;;;21.60;16.83;;;;;;;;;;4247480;33;20508;-59
2020/12/07 11:27:10;;;;;;;22.20;16.30;;;;;;;;;;4247704;33;20515;-59
2020/12/07 11:29:35;;;;;;;24.80;16.42;;;;;;;;;;4245313;33;20152;-59
2020/12/07 11:32:01;;;;;;;20.15;16.55;;;;;;;;;;4235014;33;20109;-61
2020/12/07 11:34:27;;;;;;;28.70;15.00;;;;;;;;;;4247432;33;20500;-60
2020/12/07 11:36:53;;;;;;;25.00;15.05;;;;;;;;;;4243652;33;20555;-59
2020/12/07 11:39:45;;;;;;;24.80;15.05;;;;;;;;;;4220568;33;20093;-59
2020/12/07 11:42:18;;;;;;;24.05;14.85;;;;;;;;;;4233382;33;20135;-60
2020/12/07 11:44:46;;;;;;;24.02;14.82;;;;;;;;;;4221078;33;20086;-60
2020/12/07 11:47:13;;;;;;;31.85;15.90;;;;;;;;;;4233341;33;20195;-60
2020/12/07 11:49:39;;;;;;;24.63;15.93;;;;;;;;;;4220505;33;20250;-60
2020/12/07 11:52:06;;;;;;;21.73;14.25;;;;;;;;;;4233647;33;20171;-60
2020/12/07 11:54:32;;;;;;;24.63;14.70;;;;;;;;;;4208952;33;20136;-59
2020/12/07 11:57:02;;;;;;;21.95;15.13;;;;;;;;;;4233197;33;20105;-59
2020/12/07 11:59:28;;;;;;;20.17;16.45;;;;;;;;;;4232649;33;20547;-56
2020/12/07 12:01:54;;;;;;;28.10;17.35;;;;;;;;;;4233719;33;20120;-58
2020/12/07 12:04:20;;;;;;;23.60;17.95;;;;;;;;;;4247102;33;20517;-56
2020/12/07 12:06:46;;;;;;;24.58;17.58;;;;;;;;;;4245728;33;20197;-56
2020/12/07 12:09:12;;;;;;;24.80;16.45;;;;;;;;;;4222446;33;20097;-55
2020/12/07 12:11:38;;;;;;;29.17;17.80;;;;;;;;;;4247153;33;20108;-57
2020/12/07 12:14:06;;;;;;;25.08;18.85;;;;;;;;;;4247185;33;20515;-55
2020/12/07 12:16:32;;;;;;;34.17;19.15;;;;;;;;;;4247481;33;20112;-54
2020/12/07 12:18:58;;;;;;;31.70;18.85;;;;;;;;;;4234013;33;20185;-58
2020/12/07 12:21:26;;;;;;;33.83;18.05;;;;;;;;;;4234282;33;20215;-58
2020/12/07 12:23:52;;;;;;;37.70;19.80;;;;;;;;;;4247095;33;20129;-57
2020/12/07 12:26:20;;;;;;;30.15;19.17;;;;;;;;;;4247334;33;20188;-58
2020/12/07 12:28:46;;;;;;;31.80;21.37;;;;;;;;;;4247047;33;20219;-58
2020/12/07 12:31:12;;;;;;;33.45;23.25;;;;;;;;;;4222143;33;20125;-58
2020/12/07 12:33:38;;;;;;;36.72;23.85;;;;;;;;;;4247229;33;20124;-57
2020/12/07 12:36:05;;;;;;;48.38;26.33;;;;;;;;;;4234021;33;20109;-59
2020/12/07 12:38:34;;;;;;;46.08;24.90;;;;;;;;;;4247329;33;20196;-57
2020/12/07 12:41:00;;;;;;;41.50;25.15;;;;;;;;;;4234452;33;20100;-57
2020/12/07 12:43:26;;;;;;;41.30;25.60;;;;;;;;;;4245782;33;20124;-55
2020/12/07 12:45:52;;;;;;;32.95;23.85;;;;;;;;;;4222068;33;20528;-59
2020/12/07 12:48:17;;;;;;;35.17;24.42;;;;;;;;;;4247060;33;20109;-57
2020/12/07 12:50:43;;;;;;;27.52;20.95;;;;;;;;;;4246799;33;20124;-57
2020/12/07 12:53:09;;;;;;;33.65;23.48;;;;;;;;;;4233989;33;20132;-59
2020/12/07 12:55:35;;;;;;;34.33;23.70;;;;;;;;;;4233724;33;20197;-59
2020/12/07 12:58:01;;;;;;;30.85;23.45;;;;;;;;;;4221952;33;20105;-61
2020/12/07 13:00:27;;;;;;;26.98;20.62;;;;;;;;;;4246893;33;20203;-62
2020/12/07 13:02:53;;;;;;;25.58;19.40;;;;;;;;;;4232699;33;20120;-61
2020/12/07 13:05:19;;;;;;;23.35;18.12;;;;;;;;;;4232570;33;20124;-59
2020/12/07 13:07:44;;;;;;;28.52;19.98;;;;;;;;;;4232598;33;20532;-59
2020/12/07 13:10:10;;;;;;;27.10;20.35;;;;;;;;;;4232255;33;20140;-60
2020/12/07 13:12:36;;;;;;;32.47;20.83;;;;;;;;;;4236616;33;20279;-62
2020/12/07 13:15:03;;;;;;;33.03;22.67;;;;;;;;;;4246236;33;20332;-60
2020/12/07 13:17:32;;;;;;;32.80;21.92;;;;;;;;;;4233161;33;20148;-61
2020/12/07 13:20:03;;;;;;;29.85;23.40;;;;;;;;;;4246590;33;20196;-62
2020/12/07 13:22:48;;;;;;;26.05;20.67;;;;;;;;;;4246060;33;20208;-60
2020/12/07 13:25:32;;;;;;;26.37;19.80;;;;;;;;;;4235582;33;20528;-61
2020/12/07 13:28:11;;;;;;;29.27;23.62;;;;;;;;;;4245978;33;20100;-61
2020/12/07 13:30:37;;;;;;;32.22;21.62;;;;;;;;;;4246111;33;20505;-61
2020/12/07 13:33:10;;;;;;;30.37;22.50;;;;;;;;;;4244683;33;20559;-60
2020/12/07 13:35:42;;;;;;;33.03;20.02;;;;;;;;;;4246377;33;20108;-61
2020/12/07 13:38:09;;;;;;;27.50;17.75;;;;;;;;;;4246580;33;20099;-61
2020/12/07 13:40:35;;;;;;;37.25;20.77;;;;;;;;;;4246065;33;20469;-62
2020/12/07 13:43:02;;;;;;;28.15;18.65;;;;;;;;;;4233031;33;20539;-61
2020/12/07 13:45:45;;;;;;;24.65;18.35;;;;;;;;;;4232618;33;20105;-60
2020/12/07 13:49:05;;;;;;;23.33;18.12;;;;;;;;;;4239040;33;20094;-60
2020/12/07 13:51:32;;;;;;;23.42;18.37;;;;;;;;;;4233504;33;20121;-58
2020/12/07 13:53:58;;;;;;;26.25;19.75;;;;;;;;;;4231436;33;20562;-59
2020/12/07 13:56:25;;;;;;;29.80;21.00;;;;;;;;;;4245481;33;20107;-59
2020/12/07 13:58:52;;;;;;;29.60;20.42;;;;;;;;;;4243598;33;20089;-59
2020/12/07 14:01:18;;;;;;;31.90;21.60;;;;;;;;;;4260371;33;20118;-58
2020/12/07 14:03:56;;;;;;;26.20;18.75;;;;;;;;;;4249596;33;20120;-58
2020/12/07 14:06:28;;;;;;;30.27;20.20;;;;;;;;;;4237682;33;20096;-58
2020/12/07 14:08:57;;;;;;;28.60;20.42;;;;;;;;;;4242531;33;20520;-57
2020/12/07 14:11:23;;;;;;;31.95;19.50;;;;;;;;;;4245711;33;20219;-58
2020/12/07 14:13:49;;;;;;;28.67;21.85;;;;;;;;;;4243237;33;20124;-61
2020/12/07 14:16:18;;;;;;;26.52;20.40;;;;;;;;;;4260057;33;20112;-58
2020/12/07 14:24:27;;;;;;;25.15;17.17;;;;;;;;;;4211883;33;20169;-55
2020/12/07 14:40:12;;;;;;;17.02;13.35;;;;;;;;;;4236409;33;20207;-58
2020/12/07 14:42:41;;;;;;;20.40;14.77;;;;;;;;;;4234881;33;20113;-59
2020/12/07 14:45:09;;;;;;;19.65;13.70;;;;;;;;;;4222968;33;20113;-57
2020/12/07 14:47:41;;;;;;;17.95;13.90;;;;;;;;;;4247190;33;20523;-58
2020/12/07 14:50:21;;;;;;;22.40;15.05;;;;;;;;;;4234984;33;20127;-58
2020/12/07 14:52:47;;;;;;;17.85;14.45;;;;;;;;;;4233282;33;20121;-59
2020/12/07 15:06:11;;;;;;;18.48;13.30;;;;;;;;;;4247236;33;20117;-57
2020/12/07 15:11:49;;;;;;;17.33;12.33;;;;;;;;;;4235367;33;20117;-58
2020/12/07 15:14:02;;;;;;;14.82;12.10;;;;;;;;;;4247260;33;20254;-51
2020/12/07 15:16:28;;;;;;;14.32;10.57;;;;;;;;;;4247575;33;20084;-57
2020/12/07 15:18:58;;;;;;;14.90;11.85;;;;;;;;;;4233801;33;20105;-58
2020/12/07 15:21:24;;;;;;;15.38;10.95;;;;;;;;;;4247413;33;20124;-51
2020/12/07 15:23:50;;;;;;;11.75;10.07;;;;;;;;;;4245594;33;20115;-54